createdAt,value
2023-04-15T00:01:58.625Z,21.45
2023-04-15T00:04:26.288Z,19.55
2023-04-15T00:06:53.847Z,20.15
2023-04-15T00:09:21.845Z,21.17
2023-04-15T00:11:50.624Z,17.45
2023-04-15T00:14:17.894Z,22.20
2023-04-15T00:16:44.972Z,20.45
2023-04-15T00:19:12.344Z,19.85
2023-04-15T00:21:39.378Z,17.35
2023-04-15T00:24:06.638Z,20.38
2023-04-15T00:26:33.760Z,16.17
2023-04-15T00:29:01.535Z,21.92
2023-04-15T00:31:28.789Z,17.85
2023-04-15T00:33:56.086Z,20.20
2023-04-15T00:36:23.455Z,18.25
2023-04-15T00:38:51.000Z,19.58
2023-04-15T00:41:19.405Z,20.10
2023-04-15T00:43:46.725Z,19.92
2023-04-15T00:46:15.868Z,21.23
2023-04-15T00:48:44.045Z,20.73
2023-04-15T00:51:11.052Z,21.98
2023-04-15T00:53:38.392Z,20.88
2023-04-15T00:56:06.509Z,16.33
2023-04-15T00:58:33.776Z,19.85
2023-04-15T01:01:01.146Z,20.08
2023-04-15T01:03:31.276Z,18.17
2023-04-15T01:05:58.623Z,19.50
2023-04-15T01:08:29.407Z,19.20
2023-04-15T01:10:58.658Z,17.13
2023-04-15T01:13:26.659Z,18.95
2023-04-15T01:15:54.092Z,20.20
2023-04-15T01:18:21.791Z,17.85
2023-04-15T01:20:48.798Z,18.20
2023-04-15T01:24:06.540Z,18.10
2023-04-15T01:26:34.365Z,21.02
2023-04-15T01:29:02.107Z,21.23
2023-04-15T01:31:29.465Z,16.90
2023-04-15T01:33:58.639Z,18.20
2023-04-15T01:36:44.333Z,18.45
2023-04-15T01:39:11.653Z,21.75
2023-04-15T01:41:38.573Z,19.65
2023-04-15T01:44:08.024Z,20.05
2023-04-15T01:46:37.061Z,19.57
2023-04-15T01:49:06.207Z,16.13
2023-04-15T01:51:35.272Z,20.20
2023-04-15T01:54:04.092Z,17.67
2023-04-15T01:56:32.355Z,19.00
2023-04-15T01:59:01.767Z,19.70
2023-04-15T02:01:30.458Z,19.58
2023-04-15T02:04:01.264Z,17.23
2023-04-15T02:06:29.574Z,19.02
2023-04-15T02:08:59.199Z,16.05
2023-04-15T02:11:28.487Z,17.52
2023-04-15T02:13:57.944Z,15.77
2023-04-15T02:16:27.347Z,16.25
2023-04-15T02:18:55.992Z,21.20
2023-04-15T02:21:24.165Z,17.80
2023-04-15T02:23:54.175Z,17.25
2023-04-15T02:26:22.880Z,21.10
2023-04-15T02:28:51.633Z,16.40
2023-04-15T02:31:21.178Z,17.70
2023-04-15T02:33:49.724Z,17.92
2023-04-15T02:36:18.293Z,17.98
2023-04-15T02:38:46.856Z,18.48
2023-04-15T02:41:17.837Z,16.98
2023-04-15T02:43:47.668Z,17.13
2023-04-15T02:46:16.916Z,15.93
2023-04-15T02:48:45.925Z,17.73
2023-04-15T02:51:19.947Z,18.63
2023-04-15T02:53:49.436Z,18.23
2023-04-15T02:56:19.368Z,16.92
2023-04-15T02:58:50.556Z,16.58
2023-04-15T03:01:20.763Z,18.52
2023-04-15T03:03:49.622Z,17.00
2023-04-15T03:06:17.947Z,20.50
2023-04-15T03:08:46.692Z,19.83
2023-04-15T03:11:16.133Z,16.05
2023-04-15T03:13:44.629Z,14.57
2023-04-15T03:16:25.800Z,18.17
2023-04-15T03:21:24.087Z,17.27
2023-04-15T03:23:53.214Z,18.43
2023-04-15T03:26:39.758Z,16.52
2023-04-15T03:29:13.594Z,16.75
2023-04-15T03:31:42.523Z,19.40
2023-04-15T03:34:11.114Z,16.95
2023-04-15T03:36:39.277Z,19.63
2023-04-15T03:39:08.065Z,20.90
2023-04-15T03:41:36.293Z,20.52
2023-04-15T03:44:04.948Z,19.33
2023-04-15T03:46:33.282Z,19.90
2023-04-15T03:49:02.475Z,18.88
2023-04-15T03:51:31.684Z,18.47
2023-04-15T03:54:00.235Z,19.17
2023-04-15T03:56:28.469Z,18.35
2023-04-15T03:58:56.925Z,18.67
2023-04-15T04:01:25.147Z,20.33
2023-04-15T04:03:53.840Z,19.67
2023-04-15T04:06:22.164Z,20.25
2023-04-15T04:08:50.707Z,20.13
2023-04-15T04:11:18.954Z,18.38
2023-04-15T04:13:47.398Z,19.13
2023-04-15T04:16:15.919Z,20.65
2023-04-15T04:18:44.492Z,18.30
2023-04-15T04:21:12.813Z,19.15
2023-04-15T04:23:41.343Z,21.92
2023-04-15T04:26:09.560Z,21.33
2023-04-15T04:28:40.521Z,19.20
2023-04-15T04:31:08.741Z,18.67
2023-04-15T04:33:37.271Z,16.77
2023-04-15T04:36:06.011Z,20.80
2023-04-15T04:38:34.588Z,16.33
2023-04-15T04:41:02.886Z,17.83
2023-04-15T04:43:31.396Z,18.63
2023-04-15T04:45:59.625Z,17.80
2023-04-15T04:48:28.266Z,18.85
2023-04-15T04:50:56.684Z,19.52
2023-04-15T04:53:25.208Z,21.05
2023-04-15T04:55:53.863Z,19.35
2023-04-15T04:58:22.372Z,20.65
2023-04-15T05:00:51.114Z,20.23
2023-04-15T05:03:19.910Z,20.60
2023-04-15T05:05:49.357Z,31.25
2023-04-15T05:08:17.838Z,29.77
2023-04-15T05:10:46.166Z,18.88
2023-04-15T05:13:14.643Z,20.02
2023-04-15T05:15:43.340Z,20.30
2023-04-15T05:18:11.861Z,19.27
2023-04-15T05:20:40.474Z,20.85
2023-04-15T05:23:09.034Z,21.65
2023-04-15T05:25:37.261Z,22.85
2023-04-15T05:28:06.134Z,24.08
2023-04-15T05:30:34.429Z,21.90
2023-04-15T05:33:03.821Z,20.25
2023-04-15T05:35:32.203Z,21.65
2023-04-15T05:38:00.793Z,20.77
2023-04-15T05:40:30.151Z,20.13
2023-04-15T05:42:58.749Z,19.15
2023-04-15T05:45:27.342Z,19.38
2023-04-15T05:47:55.871Z,18.38
2023-04-15T05:50:24.201Z,20.02
2023-04-15T05:52:52.727Z,21.67
2023-04-15T05:55:21.418Z,18.27
2023-04-15T05:57:49.994Z,19.43
2023-04-15T06:00:18.593Z,18.10
2023-04-15T06:02:47.742Z,17.73
2023-04-15T06:05:16.534Z,20.75
2023-04-15T06:07:47.257Z,17.37
2023-04-15T06:10:16.769Z,15.30
2023-04-15T06:12:45.951Z,17.42
2023-04-15T06:15:14.278Z,19.02
2023-04-15T06:17:42.911Z,16.95
2023-04-15T06:20:11.941Z,17.02
2023-04-15T06:22:40.815Z,18.85
2023-04-15T06:25:09.851Z,16.10
2023-04-15T06:27:38.605Z,16.23
2023-04-15T06:30:07.958Z,13.27
2023-04-15T06:32:36.668Z,18.75
2023-04-15T06:35:05.546Z,13.07
2023-04-15T06:37:34.143Z,17.97
2023-04-15T06:40:02.900Z,14.45
2023-04-15T06:42:32.201Z,15.73
2023-04-15T06:45:00.873Z,16.48
2023-04-15T06:47:29.568Z,13.88
2023-04-15T06:49:58.034Z,15.73
2023-04-15T06:52:26.689Z,13.98
2023-04-15T06:54:54.994Z,14.13
2023-04-15T06:57:23.466Z,16.05
2023-04-15T06:59:53.907Z,12.48
2023-04-15T07:02:22.795Z,15.13
2023-04-15T07:04:51.157Z,12.30
2023-04-15T07:07:19.787Z,15.85
2023-04-15T07:09:48.249Z,12.90
2023-04-15T07:12:16.846Z,12.85
2023-04-15T07:14:45.269Z,13.80
2023-04-15T07:17:13.919Z,13.98
2023-04-15T07:19:42.210Z,13.45
2023-04-15T07:22:11.110Z,16.10
2023-04-15T07:24:39.330Z,19.30
2023-04-15T07:27:08.459Z,15.68
2023-04-15T07:29:36.967Z,13.90
2023-04-15T07:32:05.950Z,14.43
2023-04-15T07:34:34.285Z,15.48
2023-04-15T07:37:03.557Z,16.33
2023-04-15T07:39:32.205Z,11.50
2023-04-15T07:42:00.794Z,14.82
2023-04-15T07:44:29.113Z,14.07
2023-04-15T07:46:57.782Z,16.13
2023-04-15T07:49:26.106Z,13.98
2023-04-15T07:51:54.996Z,14.85
2023-04-15T07:54:23.288Z,13.98
2023-04-15T07:56:51.754Z,12.35
2023-04-15T07:59:20.154Z,11.38
2023-04-15T08:01:49.125Z,10.88
2023-04-15T08:04:17.529Z,10.82
2023-04-15T08:06:48.026Z,12.35
2023-04-15T08:09:16.705Z,10.93
2023-04-15T08:11:46.066Z,12.48
2023-04-15T08:14:14.558Z,12.33
2023-04-15T08:16:43.114Z,12.07
2023-04-15T08:19:11.393Z,16.85
2023-04-15T08:21:40.688Z,8.95
2023-04-15T08:24:08.930Z,8.50
2023-04-15T08:26:37.447Z,9.48
2023-04-15T08:29:05.777Z,11.40
2023-04-15T08:31:34.538Z,12.80
2023-04-15T08:34:03.562Z,9.55
2023-04-15T08:36:32.598Z,8.85
2023-04-15T08:39:04.957Z,9.63
2023-04-15T08:41:48.065Z,9.95
2023-04-15T08:44:17.761Z,10.52
2023-04-15T08:49:17.811Z,9.73
2023-04-15T08:51:46.766Z,13.40
2023-04-15T08:54:15.771Z,9.60
2023-04-15T08:56:44.999Z,10.02
2023-04-15T08:59:13.949Z,9.90
2023-04-15T09:01:42.951Z,12.65
2023-04-15T09:04:12.477Z,10.70
2023-04-15T09:06:41.608Z,12.35
2023-04-15T09:09:09.975Z,9.93
2023-04-15T09:11:38.595Z,13.63
2023-04-15T09:14:06.969Z,14.50
2023-04-15T09:17:00.451Z,11.00
2023-04-15T09:19:29.848Z,10.60
2023-04-15T09:21:59.552Z,10.43
2023-04-15T09:24:37.584Z,11.68
2023-04-15T09:27:06.933Z,12.10
2023-04-15T09:29:37.120Z,13.68
2023-04-15T09:32:13.782Z,12.65
2023-04-15T09:34:43.071Z,11.57
2023-04-15T09:37:28.618Z,13.73
2023-04-15T09:40:00.190Z,12.05
2023-04-15T09:42:28.946Z,9.90
2023-04-15T09:45:08.546Z,11.45
2023-04-15T09:47:37.492Z,12.80
2023-04-15T09:50:06.236Z,11.13
2023-04-15T09:52:43.051Z,11.93
2023-04-15T09:55:13.083Z,10.80
2023-04-15T09:57:41.884Z,10.75
2023-04-15T10:00:11.415Z,12.75
2023-04-15T10:05:12.174Z,12.32
2023-04-15T10:07:42.867Z,12.23
2023-04-15T10:10:11.830Z,16.50
2023-04-15T10:12:42.370Z,11.52
2023-04-15T10:15:17.130Z,10.75
2023-04-15T10:17:50.942Z,9.82
2023-04-15T10:20:19.888Z,10.77
2023-04-15T10:22:49.276Z,11.05
2023-04-15T10:25:19.165Z,10.82
2023-04-15T10:27:48.823Z,9.65
2023-04-15T10:30:18.185Z,9.52
2023-04-15T10:32:48.256Z,9.48
2023-04-15T10:35:18.150Z,8.15
2023-04-15T10:37:46.863Z,9.63
2023-04-15T10:40:32.023Z,10.35
2023-04-15T10:43:02.461Z,9.25
2023-04-15T10:45:36.786Z,9.40
2023-04-15T10:48:08.253Z,10.05
2023-04-15T10:50:37.711Z,11.05
2023-04-15T10:53:06.349Z,9.95
2023-04-15T10:55:35.336Z,9.30
2023-04-15T10:58:04.075Z,8.27
2023-04-15T11:00:33.222Z,9.20
2023-04-15T11:03:09.543Z,12.15
2023-04-15T11:05:41.833Z,9.20
2023-04-15T11:08:11.687Z,9.82
2023-04-15T11:10:40.052Z,11.75
2023-04-15T11:13:11.542Z,9.30
2023-04-15T11:15:42.306Z,10.00
2023-04-15T11:18:13.111Z,9.60
2023-04-15T11:20:45.314Z,11.65
2023-04-15T11:23:16.993Z,10.90
2023-04-15T11:28:14.648Z,11.55
2023-04-15T11:30:43.679Z,13.88
2023-04-15T11:33:13.896Z,10.38
2023-04-15T11:38:14.122Z,22.77
2023-04-15T11:40:46.240Z,36.28
2023-04-15T11:43:21.128Z,16.80
2023-04-15T11:45:53.899Z,12.82
2023-04-15T11:48:25.101Z,8.10
2023-04-15T11:51:04.667Z,9.30
2023-04-15T11:53:38.400Z,10.02
2023-04-15T11:56:06.176Z,8.15
2023-04-15T11:58:37.968Z,7.60
2023-04-15T12:01:06.240Z,7.72
2023-04-15T12:03:38.032Z,8.65
2023-04-15T12:06:06.323Z,8.32
2023-04-15T12:09:08.719Z,7.55
2023-04-15T12:11:41.610Z,7.32
2023-04-15T12:14:30.067Z,6.63
2023-04-15T12:17:02.553Z,9.35
2023-04-15T12:19:35.109Z,9.70
2023-04-15T12:22:05.415Z,8.52
2023-04-15T12:24:34.508Z,14.60
2023-04-15T12:27:04.180Z,11.25
2023-04-15T12:32:11.783Z,9.63
2023-04-15T12:34:53.242Z,9.25
2023-04-15T12:37:21.210Z,8.57
2023-04-15T12:39:50.662Z,10.30
2023-04-15T12:42:18.191Z,9.98
2023-04-15T12:44:45.920Z,9.43
2023-04-15T12:47:13.500Z,8.30
2023-04-15T12:49:41.400Z,10.52
2023-04-15T12:52:08.646Z,8.32
2023-04-15T12:54:36.336Z,9.27
2023-04-15T12:57:06.979Z,10.70
2023-04-15T12:59:36.024Z,12.65
2023-04-15T13:02:04.139Z,12.52
2023-04-15T13:04:33.066Z,10.40
2023-04-15T13:07:00.239Z,12.05
2023-04-15T13:09:27.587Z,11.65
2023-04-15T13:11:54.985Z,12.90
2023-04-15T13:14:22.549Z,8.95
2023-04-15T13:16:49.865Z,11.43
2023-04-15T13:19:17.472Z,12.75
2023-04-15T13:21:44.730Z,12.40
2023-04-15T13:24:12.208Z,11.55
2023-04-15T13:26:39.552Z,10.05
2023-04-15T13:29:09.499Z,10.57
2023-04-15T13:31:36.791Z,12.20
2023-04-15T13:34:04.589Z,10.85
2023-04-15T13:36:31.949Z,11.70
2023-04-15T13:39:00.120Z,11.32
2023-04-15T13:41:27.207Z,13.20
2023-04-15T13:43:55.304Z,12.93
2023-04-15T13:46:24.189Z,12.77
2023-04-15T13:48:53.739Z,11.35
2023-04-15T13:51:21.244Z,13.93
2023-04-15T13:53:49.034Z,14.15
2023-04-15T13:56:16.354Z,13.63
2023-04-15T13:58:44.114Z,15.02
2023-04-15T14:01:11.470Z,15.80
2023-04-15T14:03:39.130Z,15.57
2023-04-15T14:06:07.058Z,14.80
2023-04-15T14:08:34.835Z,16.65
2023-04-15T14:11:02.220Z,15.20
2023-04-15T14:13:29.797Z,14.27
2023-04-15T14:15:57.734Z,14.73
2023-04-15T14:18:25.882Z,12.23
2023-04-15T14:20:53.485Z,13.77
2023-04-15T14:23:21.501Z,15.57
2023-04-15T14:25:48.667Z,13.02
2023-04-15T14:28:16.542Z,17.48
2023-04-15T14:30:43.817Z,14.88
2023-04-15T14:33:11.611Z,15.93
2023-04-15T14:35:39.160Z,17.50
2023-04-15T14:38:10.481Z,18.10
2023-04-15T14:40:37.762Z,15.40
2023-04-15T14:43:05.212Z,14.60
2023-04-15T14:45:32.267Z,14.80
2023-04-15T14:47:59.914Z,15.90
2023-04-15T14:50:27.070Z,13.50
2023-04-15T14:52:54.349Z,12.60
2023-04-15T14:55:21.432Z,12.07
2023-04-15T14:57:49.052Z,12.65
2023-04-15T15:00:17.520Z,13.20
2023-04-15T15:02:45.329Z,10.55
2023-04-15T15:05:12.883Z,18.35
2023-04-15T15:07:43.424Z,8.93
2023-04-15T15:12:38.270Z,9.23
2023-04-15T15:15:15.570Z,11.63
2023-04-15T15:17:43.601Z,11.40
2023-04-15T15:20:11.139Z,9.55
2023-04-15T15:22:38.621Z,9.45
2023-04-15T15:25:06.289Z,12.60
2023-04-15T15:27:33.872Z,10.23
2023-04-15T15:30:01.019Z,10.60
2023-04-15T15:32:28.653Z,13.10
2023-04-15T15:34:55.923Z,9.25
2023-04-15T15:37:23.456Z,9.57
2023-04-15T15:39:52.590Z,10.13
2023-04-15T15:42:20.227Z,8.30
2023-04-15T15:44:49.321Z,10.48
2023-04-15T15:47:17.034Z,19.67
2023-04-15T15:49:44.824Z,24.00
2023-04-15T15:52:12.979Z,27.92
2023-04-15T15:54:41.350Z,23.73
2023-04-15T15:57:10.581Z,14.23
2023-04-15T15:59:43.661Z,13.13
2023-04-15T16:02:12.658Z,15.75
2023-04-15T16:04:41.184Z,16.50
2023-04-15T16:07:10.585Z,16.10
2023-04-15T16:09:40.565Z,14.82
2023-04-15T16:12:08.490Z,10.70
2023-04-15T16:14:36.518Z,12.05
2023-04-15T16:17:03.997Z,10.25
2023-04-15T16:19:31.320Z,12.02
2023-04-15T16:22:00.599Z,10.45
2023-04-15T16:24:29.421Z,9.93
2023-04-15T16:26:59.413Z,9.33
2023-04-15T16:29:26.632Z,9.73
2023-04-15T16:31:55.864Z,8.68
2023-04-15T16:34:23.234Z,9.55
2023-04-15T16:36:50.927Z,13.35
2023-04-15T16:39:19.757Z,8.68
2023-04-15T16:41:47.321Z,7.20
2023-04-15T16:44:14.890Z,8.20
2023-04-15T16:46:42.672Z,10.40
2023-04-15T16:49:10.117Z,14.25
2023-04-15T16:51:37.732Z,9.35
2023-04-15T16:54:05.327Z,11.30
2023-04-15T16:56:33.348Z,10.23
2023-04-15T16:59:00.909Z,11.40
2023-04-15T17:01:29.194Z,7.55
2023-04-15T17:03:56.832Z,11.68
2023-04-15T17:06:24.943Z,13.52
2023-04-15T17:08:52.428Z,9.55
2023-04-15T17:11:20.134Z,12.20
2023-04-15T17:13:47.919Z,7.88
2023-04-15T17:16:16.096Z,8.05
2023-04-15T17:18:44.755Z,7.07
2023-04-15T17:21:18.607Z,8.35
2023-04-15T17:23:52.294Z,10.13
2023-04-15T17:26:20.862Z,8.48
2023-04-15T17:28:51.717Z,6.22
2023-04-15T17:31:25.305Z,5.97
2023-04-15T17:34:13.958Z,6.28
2023-04-15T17:37:03.763Z,6.65
2023-04-15T17:39:52.298Z,7.15
2023-04-15T17:42:40.319Z,9.02
2023-04-15T17:45:27.803Z,9.45
2023-04-15T17:48:15.720Z,8.80
2023-04-15T17:51:03.746Z,6.50
2023-04-15T17:53:52.043Z,8.98
2023-04-15T17:56:39.682Z,7.60
2023-04-15T17:59:28.058Z,7.15
2023-04-15T18:02:15.553Z,7.47
2023-04-15T18:05:03.677Z,8.07
2023-04-15T18:07:52.426Z,5.75
2023-04-15T18:10:39.961Z,6.82
2023-04-15T18:13:27.380Z,8.88
2023-04-15T18:16:15.526Z,6.75
2023-04-15T18:19:02.856Z,9.20
2023-04-15T18:21:31.795Z,8.18
2023-04-15T18:23:59.157Z,8.23
2023-04-15T18:26:28.520Z,7.82
2023-04-15T18:28:55.932Z,7.57
2023-04-15T18:31:24.261Z,7.60
2023-04-15T18:33:51.816Z,8.30
2023-04-15T18:36:19.575Z,7.93
2023-04-15T18:38:46.905Z,9.45
2023-04-15T18:41:14.843Z,8.38
2023-04-15T18:43:42.564Z,4.78
2023-04-15T18:46:14.923Z,5.75
2023-04-15T18:48:42.560Z,6.78
2023-04-15T18:51:10.660Z,6.70
2023-04-15T18:53:38.780Z,6.25
2023-04-15T18:56:07.131Z,6.68
2023-04-15T18:59:27.657Z,9.82
2023-04-15T19:01:22.484Z,6.57
2023-04-15T19:03:50.342Z,7.90
2023-04-15T19:06:18.558Z,7.57
2023-04-15T19:08:46.303Z,6.72
2023-04-15T19:11:14.055Z,6.40
2023-04-15T19:13:41.279Z,7.65
2023-04-15T19:16:08.940Z,8.00
2023-04-15T19:18:36.167Z,6.30
2023-04-15T19:21:04.112Z,7.38
2023-04-15T19:23:32.191Z,9.98
2023-04-15T19:26:00.498Z,6.28
2023-04-15T19:28:28.407Z,6.25
2023-04-15T19:30:58.025Z,8.30
2023-04-15T19:33:31.178Z,9.63
2023-04-15T19:36:04.246Z,7.95
2023-04-15T19:38:33.002Z,7.45
2023-04-15T19:41:01.043Z,7.03
2023-04-15T19:43:28.795Z,8.48
2023-04-15T19:45:57.230Z,8.75
2023-04-15T19:48:25.352Z,9.85
2023-04-15T19:50:53.446Z,9.82
2023-04-15T19:53:21.391Z,11.70
2023-04-15T19:55:49.397Z,9.73
2023-04-15T19:58:16.725Z,10.85
2023-04-15T20:00:45.350Z,9.95
2023-04-15T20:03:13.026Z,10.98
2023-04-15T20:05:41.909Z,11.07
2023-04-15T20:08:09.961Z,10.02
2023-04-15T20:10:37.999Z,10.05
2023-04-15T20:13:05.865Z,12.50
2023-04-15T20:15:33.801Z,10.52
2023-04-15T20:18:01.685Z,11.48
2023-04-15T20:20:29.249Z,13.70
2023-04-15T20:22:57.154Z,10.80
2023-04-15T20:25:24.789Z,10.70
2023-04-15T20:27:52.198Z,12.48
2023-04-15T20:30:20.140Z,12.10
2023-04-15T20:32:47.906Z,11.52
2023-04-15T20:35:16.055Z,10.18
2023-04-15T20:37:45.084Z,10.60
2023-04-15T20:40:15.307Z,12.90
2023-04-15T20:42:43.763Z,12.00
2023-04-15T20:45:11.557Z,12.13
2023-04-15T20:47:39.028Z,11.70
2023-04-15T20:50:07.420Z,12.05
2023-04-15T20:52:34.576Z,10.32
2023-04-15T20:55:02.214Z,11.77
2023-04-15T20:57:30.500Z,10.18
2023-04-15T20:59:58.608Z,10.77
2023-04-15T21:02:26.329Z,12.35
2023-04-15T21:04:54.624Z,11.05
2023-04-15T21:07:22.066Z,9.70
2023-04-15T21:09:49.754Z,7.97
2023-04-15T21:12:17.052Z,8.10
2023-04-15T21:14:45.227Z,8.93
2023-04-15T21:17:12.868Z,7.90
2023-04-15T21:19:40.701Z,7.72
2023-04-15T21:22:07.797Z,8.20
2023-04-15T21:24:35.182Z,9.10
2023-04-15T21:27:02.473Z,9.23
2023-04-15T21:29:30.132Z,8.30
2023-04-15T21:31:57.396Z,8.93
2023-04-15T21:34:24.976Z,8.65
2023-04-15T21:36:52.244Z,8.93
2023-04-15T21:39:19.841Z,10.13
2023-04-15T21:41:48.334Z,8.70
2023-04-15T21:44:15.844Z,8.73
2023-04-15T21:46:45.786Z,10.45
2023-04-15T21:49:14.012Z,10.90
2023-04-15T21:51:41.073Z,10.05
2023-04-15T21:54:08.385Z,8.35
2023-04-15T21:56:35.470Z,8.63
2023-04-15T21:59:03.019Z,9.18
2023-04-15T22:01:30.247Z,8.70
2023-04-15T22:03:57.886Z,8.68
2023-04-15T22:06:25.323Z,10.50
2023-04-15T22:08:57.538Z,9.80
2023-04-15T22:11:30.340Z,13.45
2023-04-15T22:13:58.889Z,9.10
2023-04-15T22:16:27.107Z,9.77
2023-04-15T22:18:55.536Z,11.45
2023-04-15T22:21:22.930Z,13.35
2023-04-15T22:23:51.360Z,12.43
2023-04-15T22:26:18.564Z,14.23
2023-04-15T22:28:46.067Z,13.85
2023-04-15T22:31:14.774Z,11.93
2023-04-15T22:33:42.194Z,11.07
2023-04-15T22:36:09.258Z,9.20
2023-04-15T22:38:36.644Z,11.48
2023-04-15T22:41:03.723Z,8.88
2023-04-15T22:43:31.121Z,9.63
2023-04-15T22:45:58.214Z,9.63
2023-04-15T22:48:25.747Z,11.32
2023-04-15T22:50:53.065Z,7.43
2023-04-15T22:53:20.469Z,10.20
2023-04-15T22:55:48.889Z,9.30
2023-04-15T22:58:17.132Z,8.95
2023-04-15T23:00:44.672Z,9.20
2023-04-15T23:03:12.197Z,10.80
2023-04-15T23:05:45.035Z,10.45
2023-04-15T23:08:12.436Z,9.20
2023-04-15T23:10:40.191Z,9.88
2023-04-15T23:13:07.560Z,8.15
2023-04-15T23:15:34.633Z,8.77
2023-04-15T23:18:02.441Z,10.65
2023-04-15T23:20:29.526Z,8.98
2023-04-15T23:22:56.823Z,8.60
2023-04-15T23:25:24.006Z,9.52
2023-04-15T23:27:51.359Z,9.27
2023-04-15T23:30:18.308Z,9.60
2023-04-15T23:32:45.758Z,8.48
2023-04-15T23:35:12.854Z,11.77
2023-04-15T23:37:40.255Z,9.00
2023-04-15T23:40:07.878Z,11.25
2023-04-15T23:42:35.291Z,10.93
2023-04-15T23:45:02.313Z,12.48
2023-04-15T23:47:30.893Z,12.02
2023-04-15T23:49:58.259Z,14.43
2023-04-15T23:52:25.685Z,9.88
2023-04-15T23:54:52.685Z,15.35
2023-04-15T23:57:20.121Z,15.15
2023-04-15T23:59:47.172Z,13.73
